Time;durP1;ratioP1;P1;durP2;ratioP2;P2;SDS_P1;SDS_P2;PMS_P1;PMS_P2;Temp;Humidity;BMP_temperature;BMP_pressure;BME280_temperature;BME280_humidity;BME280_pressure;Samples;Min_cycle;Max_cycle;Signal;HPM_P1;HPM_P2
2024/04/02 00:00:42;;;;;;;5.72;1.90;;;10.60;99.90;;;;;;5039007;28;20029;-68
2024/04/02 00:03:12;;;;;;;4.22;2.20;;;10.60;99.90;;;;;;5040970;28;20029;-68
2024/04/02 00:05:39;;;;;;;5.70;2.03;;;10.60;99.90;;;;;;5044234;28;20044;-68
2024/04/02 00:08:06;;;;;;;3.13;1.87;;;10.60;99.90;;;;;;5039863;28;20036;-69
2024/04/02 00:10:33;;;;;;;3.90;2.10;;;10.60;99.90;;;;;;5035976;28;20274;-68
2024/04/02 00:12:59;;;;;;;4.50;2.35;;;10.70;99.90;;;;;;5036329;28;20124;-68
2024/04/02 00:15:25;;;;;;;3.78;2.60;;;10.60;99.90;;;;;;5037907;28;20040;-69
2024/04/02 00:17:51;;;;;;;4.60;2.75;;;10.60;99.90;;;;;;5037853;28;20044;-68
2024/04/02 00:20:17;;;;;;;7.93;3.05;;;10.70;99.90;;;;;;5042025;28;20033;-68
2024/04/02 00:22:44;;;;;;;5.45;3.00;;;10.60;99.90;;;;;;5043660;28;20060;-68
2024/04/02 00:25:10;;;;;;;7.03;3.15;;;10.60;99.90;;;;;;5038663;28;20052;-68
2024/04/02 00:27:36;;;;;;;6.47;2.83;;;10.60;99.90;;;;;;5042257;28;20128;-68
2024/04/02 00:30:02;;;;;;;3.80;2.97;;;10.60;99.90;;;;;;5044208;28;20108;-68
2024/04/02 00:32:27;;;;;;;4.43;2.70;;;10.60;99.90;;;;;;5052754;28;20591;-68
2024/04/02 00:34:53;;;;;;;6.18;2.60;;;10.50;99.90;;;;;;5047816;28;20032;-68
2024/04/02 00:37:19;;;;;;;5.82;3.25;;;10.50;99.90;;;;;;5045823;28;20033;-68
2024/04/02 00:39:45;;;;;;;4.88;2.97;;;10.50;99.90;;;;;;5039599;28;20024;-68
2024/04/02 00:42:12;;;;;;;4.85;2.83;;;10.50;99.90;;;;;;5042248;28;20037;-68
2024/04/02 00:44:37;;;;;;;4.03;2.90;;;10.50;99.90;;;;;;5049889;28;20084;-68
2024/04/02 00:47:04;;;;;;;6.28;2.60;;;10.50;99.90;;;;;;5043675;28;20494;-68
2024/04/02 00:49:31;;;;;;;4.87;2.80;;;10.50;99.90;;;;;;5044050;28;20656;-68
2024/04/02 00:51:57;;;;;;;4.70;2.70;;;10.50;99.90;;;;;;5044830;28;20033;-68
2024/04/02 00:54:24;;;;;;;6.32;3.75;;;10.50;99.90;;;;;;5043793;28;20095;-68
2024/04/02 00:56:50;;;;;;;5.22;2.90;;;10.50;99.90;;;;;;5045301;28;20037;-68
2024/04/02 00:59:16;;;;;;;6.57;3.47;;;10.50;99.90;;;;;;5038720;28;20048;-68
2024/04/02 01:01:41;;;;;;;13.35;3.63;;;10.50;99.90;;;;;;5039375;28;20041;-68
2024/04/02 01:04:07;;;;;;;7.00;3.40;;;10.50;99.90;;;;;;5036516;28;20852;-68
2024/04/02 01:06:34;;;;;;;3.92;3.10;;;10.50;99.90;;;;;;5040058;28;20647;-68
2024/04/02 01:08:59;;;;;;;6.93;3.50;;;10.50;99.90;;;;;;5038055;28;20053;-68
2024/04/02 01:11:27;;;;;;;8.68;3.05;;;10.50;99.90;;;;;;5041655;28;20087;-68
2024/04/02 01:13:52;;;;;;;5.78;3.40;;;10.50;99.90;;;;;;5043336;28;20517;-68
2024/04/02 01:16:18;;;;;;;6.47;3.60;;;10.50;99.90;;;;;;5039299;28;20044;-68
2024/04/02 01:18:47;;;;;;;8.20;3.67;;;10.50;99.90;;;;;;5034597;28;20466;-68
2024/04/02 01:21:20;;;;;;;6.72;4.13;;;10.50;99.90;;;;;;5040787;28;20032;-68
2024/04/02 01:23:46;;;;;;;8.20;3.53;;;10.50;99.90;;;;;;5039559;28;20037;-68
2024/04/02 01:26:12;;;;;;;7.05;3.28;;;10.50;99.90;;;;;;5036685;28;20040;-68
2024/04/02 01:28:38;;;;;;;5.32;3.30;;;10.60;99.90;;;;;;5039354;28;20025;-68
2024/04/02 01:31:04;;;;;;;4.70;3.65;;;10.50;99.90;;;;;;5045238;28;20476;-68
2024/04/02 01:33:30;;;;;;;5.80;3.80;;;10.50;99.90;;;;;;5051905;28;20044;-68
2024/04/02 01:35:56;;;;;;;7.57;3.53;;;10.50;99.90;;;;;;5045115;28;20041;-68
2024/04/02 01:38:21;;;;;;;10.60;3.55;;;10.50;99.90;;;;;;5038220;28;20036;-68
2024/04/02 01:40:47;;;;;;;8.57;3.47;;;10.50;99.90;;;;;;5038051;28;20029;-68
2024/04/02 01:43:12;;;;;;;10.05;4.07;;;10.60;99.90;;;;;;5045513;28;20147;-68
2024/04/02 01:45:38;;;;;;;9.73;3.70;;;10.60;99.90;;;;;;5038674;28;20042;-68
2024/04/02 01:48:04;;;;;;;5.72;3.40;;;10.60;99.90;;;;;;5040039;28;20684;-68
2024/04/02 01:50:30;;;;;;;8.75;3.35;;;10.60;99.90;;;;;;5039282;28;20033;-68
2024/04/02 01:52:55;;;;;;;3.83;3.15;;;10.60;99.90;;;;;;5041305;28;20025;-68
2024/04/02 01:55:22;;;;;;;8.20;3.83;;;10.60;99.90;;;;;;5047290;28;20112;-68
2024/04/02 01:57:47;;;;;;;7.55;3.85;;;10.60;99.90;;;;;;5046302;28;20551;-68
2024/04/02 02:00:14;;;;;;;5.78;3.55;;;10.60;99.90;;;;;;5045231;28;20045;-68
2024/04/02 02:02:40;;;;;;;5.57;3.35;;;10.60;99.90;;;;;;5041779;28;20140;-68
2024/04/02 02:05:06;;;;;;;5.82;2.95;;;10.60;99.90;;;;;;5044157;28;20044;-68
2024/04/02 02:07:32;;;;;;;8.30;4.03;;;10.70;99.90;;;;;;5042286;28;20021;-68
2024/04/02 02:09:57;;;;;;;8.70;4.00;;;10.70;99.90;;;;;;5047109;28;20072;-68
2024/04/02 02:12:23;;;;;;;7.15;3.58;;;10.70;99.90;;;;;;5044206;28;20080;-68
2024/04/02 02:14:48;;;;;;;6.47;3.53;;;10.80;99.90;;;;;;5043499;28;20029;-68
2024/04/02 02:17:14;;;;;;;7.75;3.95;;;10.70;99.90;;;;;;5044315;28;20037;-68
2024/04/02 02:19:39;;;;;;;8.73;4.15;;;10.70;99.90;;;;;;5044637;28;20017;-68
2024/04/02 02:22:05;;;;;;;5.53;3.47;;;10.70;99.90;;;;;;5042195;28;20021;-68
2024/04/02 02:24:30;;;;;;;6.03;3.53;;;10.70;99.90;;;;;;5041249;28;20550;-68
2024/04/02 02:26:59;;;;;;;8.20;4.00;;;10.70;99.90;;;;;;5042515;28;20033;-68
2024/04/02 02:29:25;;;;;;;;;;;10.70;99.90;;;;;;5046740;28;20044;-68
2024/04/02 02:31:52;;;;;;;8.13;3.72;;;10.70;99.90;;;;;;5042293;28;19913;-68
2024/04/02 02:34:18;;;;;;;6.28;3.45;;;10.60;99.90;;;;;;5044393;28;20056;-68
2024/04/02 02:36:43;;;;;;;7.20;3.60;;;10.60;99.90;;;;;;5042582;28;20072;-68
2024/04/02 02:39:11;;;;;;;6.07;3.45;;;10.60;99.90;;;;;;5045014;28;20120;-68
2024/04/02 02:41:36;;;;;;;4.95;3.65;;;10.60;99.90;;;;;;5043862;28;20071;-68
2024/04/02 02:44:03;;;;;;;8.73;4.03;;;10.60;99.90;;;;;;5038997;28;20034;-68
2024/04/02 02:46:28;;;;;;;6.70;3.85;;;10.60;99.90;;;;;;5039236;28;20036;-68
2024/04/02 02:48:55;;;;;;;6.68;4.00;;;10.50;99.90;;;;;;5041707;28;20036;-68
2024/04/02 02:51:20;;;;;;;9.10;4.38;;;10.50;99.90;;;;;;5039075;28;20048;-68
2024/04/02 02:53:46;;;;;;;7.38;3.65;;;10.50;99.90;;;;;;5044101;28;20094;-68
2024/04/02 02:56:12;;;;;;;7.82;3.58;;;10.50;99.90;;;;;;5039618;28;20251;-68
2024/04/02 02:58:37;;;;;;;7.97;3.67;;;10.40;99.90;;;;;;5047112;28;20056;-68
2024/04/02 03:01:06;;;;;;;5.28;3.20;;;10.40;99.90;;;;;;5042002;28;20033;-68
2024/04/02 03:03:32;;;;;;;8.15;3.72;;;10.40;99.90;;;;;;5043471;28;20537;-68
2024/04/02 03:05:57;;;;;;;6.10;3.75;;;10.40;99.90;;;;;;5039870;28;20049;-68
2024/04/02 03:08:23;;;;;;;7.78;4.03;;;10.30;99.90;;;;;;5043110;28;20037;-68
2024/04/02 03:11:03;;;;;;;7.75;4.28;;;10.30;99.90;;;;;;5043559;28;20021;-68
2024/04/02 03:13:32;;;;;;;13.00;4.00;;;10.20;99.90;;;;;;5044569;28;20030;-68
2024/04/02 03:15:58;;;;;;;7.65;4.13;;;10.20;99.90;;;;;;5040541;28;20690;-68
2024/04/02 03:18:24;;;;;;;8.23;4.63;;;10.20;99.90;;;;;;5040082;28;20048;-68
2024/04/02 03:20:50;;;;;;;5.38;3.47;;;10.20;99.90;;;;;;5042642;28;20570;-68
2024/04/02 03:23:20;;;;;;;10.20;4.40;;;10.20;99.90;;;;;;5042312;28;20038;-68
2024/04/02 03:25:52;;;;;;;8.55;3.47;;;10.10;99.90;;;;;;5044143;28;20025;-68
2024/04/02 03:28:18;;;;;;;5.95;3.63;;;10.10;99.90;;;;;;5046975;28;20025;-68
2024/04/02 03:30:44;;;;;;;6.63;3.33;;;10.10;99.90;;;;;;5047000;28;20037;-68
2024/04/02 03:33:09;;;;;;;5.57;3.50;;;10.10;99.90;;;;;;5039222;28;20022;-68
2024/04/02 03:35:36;;;;;;;7.45;3.63;;;10.10;99.90;;;;;;5036423;28;20490;-68
2024/04/02 03:38:01;;;;;;;5.53;2.90;;;10.10;99.90;;;;;;5042822;28;20111;-68
2024/04/02 03:40:27;;;;;;;4.40;2.80;;;10.10;99.90;;;;;;5041886;28;20065;-68
2024/04/02 03:42:52;;;;;;;7.70;3.25;;;10.20;99.90;;;;;;5035677;28;20041;-68
2024/04/02 03:45:20;;;;;;;5.75;3.15;;;10.10;99.90;;;;;;5036897;28;20044;-68
2024/04/02 03:47:46;;;;;;;8.07;3.17;;;10.10;99.90;;;;;;5041625;28;20029;-68
2024/04/02 03:50:11;;;;;;;7.72;3.08;;;10.10;99.90;;;;;;5037537;28;20033;-68
2024/04/02 03:52:37;;;;;;;5.10;2.42;;;10.10;99.90;;;;;;5037511;28;20029;-68
2024/04/02 03:55:02;;;;;;;6.78;2.55;;;10.10;99.90;;;;;;5040263;28;20052;-68
2024/04/02 03:57:28;;;;;;;7.60;2.88;;;10.00;99.90;;;;;;5038894;28;20048;-68
2024/04/02 03:59:54;;;;;;;6.38;2.70;;;10.10;99.90;;;;;;5036042;28;20037;-68
2024/04/02 04:02:19;;;;;;;8.70;2.55;;;10.00;99.90;;;;;;5040768;28;20080;-68
2024/04/02 04:04:45;;;;;;;4.68;2.50;;;10.00;99.90;;;;;;5038000;28;20040;-68
2024/04/02 04:07:10;;;;;;;6.15;2.75;;;10.00;99.90;;;;;;5038961;28;20089;-68
2024/04/02 04:09:36;;;;;;;7.03;2.80;;;10.00;99.90;;;;;;5042820;28;20442;-68
2024/04/02 04:12:02;;;;;;;7.05;2.85;;;10.00;99.90;;;;;;5040530;28;20129;-68
2024/04/02 04:14:28;;;;;;;9.65;3.17;;;9.90;99.90;;;;;;5035529;28;20073;-68
2024/04/02 04:16:53;;;;;;;6.07;3.38;;;9.90;99.90;;;;;;5035297;28;20128;-68
2024/04/02 04:19:19;;;;;;;8.68;3.22;;;9.90;99.90;;;;;;5041715;28;20031;-68
2024/04/02 04:21:45;;;;;;;5.00;2.97;;;9.90;99.90;;;;;;5036297;28;20040;-68
2024/04/02 04:24:10;;;;;;;6.28;2.80;;;9.90;99.90;;;;;;5041773;28;20041;-68
2024/04/02 04:26:36;;;;;;;6.85;3.45;;;9.90;99.90;;;;;;5033523;28;20038;-68
2024/04/02 04:29:02;;;;;;;4.97;3.58;;;9.90;99.90;;;;;;5039960;28;20655;-68
2024/04/02 04:31:28;;;;;;;4.80;3.47;;;9.90;99.90;;;;;;5042294;28;20021;-68
2024/04/02 04:33:54;;;;;;;8.27;4.07;;;9.90;99.90;;;;;;5040742;28;20044;-68
2024/04/02 04:36:19;;;;;;;9.23;4.20;;;9.90;99.90;;;;;;5041036;28;20195;-69
2024/04/02 04:38:45;;;;;;;6.97;3.78;;;9.90;99.90;;;;;;5039232;28;20028;-68
2024/04/02 04:41:10;;;;;;;7.32;3.90;;;9.90;99.90;;;;;;5041358;28;20083;-68
2024/04/02 04:43:36;;;;;;;8.52;4.20;;;9.90;99.90;;;;;;5040499;28;20032;-68
2024/04/02 04:46:03;;;;;;;8.38;4.43;;;9.90;99.90;;;;;;5039880;28;20032;-68
2024/04/02 04:48:30;;;;;;;5.72;3.65;;;9.90;99.90;;;;;;5038360;28;20041;-68
2024/04/02 04:50:57;;;;;;;4.95;4.20;;;9.90;99.90;;;;;;5041480;28;20037;-68
2024/04/02 04:53:23;;;;;;;10.98;4.60;;;10.00;99.90;;;;;;5036224;28;20729;-65
2024/04/02 04:55:48;;;;;;;11.68;4.45;;;9.90;99.90;;;;;;5033488;28;20044;-65
2024/04/02 04:58:14;;;;;;;9.85;3.85;;;10.00;99.90;;;;;;5038688;28;20037;-65
2024/04/02 05:00:39;;;;;;;6.38;4.20;;;10.00;99.90;;;;;;5038169;28;20060;-65
2024/04/02 05:03:05;;;;;;;8.10;4.43;;;10.00;99.90;;;;;;5034516;28;20038;-65
2024/04/02 05:05:33;;;;;;;6.47;3.78;;;10.00;99.90;;;;;;5032089;28;20125;-65
2024/04/02 05:08:16;;;;;;;5.47;3.40;;;10.00;99.90;;;;;;5041602;28;20034;-65
2024/04/02 05:10:42;;;;;;;7.55;3.75;;;10.00;99.90;;;;;;5038264;28;20032;-65
2024/04/02 05:13:08;;;;;;;9.50;3.35;;;10.00;99.90;;;;;;5035632;28;20026;-65
2024/04/02 05:15:33;;;;;;;5.30;3.47;;;9.90;99.90;;;;;;5039529;28;20405;-65
2024/04/02 05:17:59;;;;;;;6.28;3.30;;;10.00;99.90;;;;;;5036693;28;20041;-65
2024/04/02 05:20:25;;;;;;;6.68;3.28;;;10.00;99.90;;;;;;5032092;28;20034;-65
2024/04/02 05:22:53;;;;;;;7.35;3.40;;;10.00;99.90;;;;;;5033393;28;20116;-65
2024/04/02 05:25:19;;;;;;;7.85;3.50;;;10.00;99.90;;;;;;5037822;28;20032;-65
2024/04/02 05:27:44;;;;;;;7.68;3.85;;;10.00;99.90;;;;;;5037029;28;20033;-65
2024/04/02 05:30:12;;;;;;;7.90;3.67;;;10.00;99.90;;;;;;5040758;28;20048;-65
2024/04/02 05:32:38;;;;;;;5.78;3.58;;;9.90;99.90;;;;;;5048110;28;20068;-65
2024/04/02 05:35:03;;;;;;;7.65;3.88;;;10.00;99.90;;;;;;5041497;28;20693;-65
2024/04/02 05:37:29;;;;;;;6.03;3.30;;;10.00;99.90;;;;;;5042369;28;20064;-64
2024/04/02 05:39:55;;;;;;;7.72;3.70;;;10.00;99.90;;;;;;5038727;28;20040;-66
2024/04/02 05:42:21;;;;;;;6.28;4.45;;;10.20;99.90;;;;;;5040607;28;20116;-66
2024/04/02 05:44:47;;;;;;;7.60;4.57;;;10.20;99.90;;;;;;5043429;28;20410;-65
2024/04/02 05:47:12;;;;;;;7.95;4.00;;;10.30;99.90;;;;;;5045225;28;20045;-66
2024/04/02 05:49:38;;;;;;;8.73;4.50;;;10.40;99.90;;;;;;5043433;28;20072;-64
2024/04/02 05:52:04;;;;;;;8.20;4.47;;;10.40;99.90;;;;;;5041271;28;20034;-65
2024/04/02 05:54:29;;;;;;;10.60;4.00;;;10.40;99.90;;;;;;5039792;28;20048;-65
2024/04/02 05:56:55;;;;;;;10.43;4.30;;;10.40;99.90;;;;;;5045270;28;20044;-65
2024/04/02 05:59:21;;;;;;;11.68;3.90;;;10.30;99.90;;;;;;5042745;28;20052;-65
2024/04/02 06:01:47;;;;;;;6.55;3.83;;;10.30;99.90;;;;;;5033420;28;20060;-65
2024/04/02 06:04:13;;;;;;;6.63;4.15;;;10.30;99.90;;;;;;5045377;28;20036;-66
2024/04/02 06:06:38;;;;;;;7.55;3.97;;;10.30;99.90;;;;;;5038027;28;20037;-66
2024/04/02 06:09:04;;;;;;;6.80;3.85;;;10.30;99.90;;;;;;5042330;28;20091;-66
2024/04/02 06:11:29;;;;;;;6.60;3.28;;;10.30;99.90;;;;;;5047437;28;20029;-66
2024/04/02 06:13:55;;;;;;;5.15;3.35;;;10.30;99.90;;;;;;5042040;28;20519;-66
2024/04/02 06:16:21;;;;;;;6.80;3.58;;;10.30;99.90;;;;;;5040515;28;20040;-66
2024/04/02 06:18:46;;;;;;;5.93;2.45;;;10.40;99.90;;;;;;5041147;28;20041;-67
2024/04/02 06:21:13;;;;;;;11.13;2.63;;;10.40;99.90;;;;;;5035509;28;20037;-67
2024/04/02 06:23:39;;;;;;;7.60;2.97;;;10.40;99.90;;;;;;5040444;28;20025;-67
2024/04/02 06:26:04;;;;;;;6.95;2.78;;;10.40;99.90;;;;;;5039992;28;20768;-67
2024/04/02 06:28:30;;;;;;;5.68;2.75;;;10.40;99.90;;;;;;5044942;28;20021;-67
2024/04/02 06:30:55;;;;;;;7.80;3.10;;;10.40;99.90;;;;;;5045012;28;20041;-66
2024/04/02 06:33:21;;;;;;;6.72;2.25;;;10.50;99.90;;;;;;5044806;28;20040;-67
2024/04/02 06:35:46;;;;;;;6.13;2.53;;;10.50;99.90;;;;;;5041194;28;20035;-66
2024/04/02 06:38:12;;;;;;;6.00;2.58;;;10.50;99.90;;;;;;5047367;28;20124;-67
2024/04/02 06:40:37;;;;;;;11.55;2.65;;;10.50;99.90;;;;;;5044888;28;20086;-67
2024/04/02 06:43:03;;;;;;;11.63;2.70;;;10.60;99.90;;;;;;5042278;28;20403;-67
2024/04/02 06:45:29;;;;;;;4.07;2.20;;;10.60;99.90;;;;;;5043385;28;20033;-61
2024/04/02 06:47:54;;;;;;;9.52;2.92;;;10.70;99.90;;;;;;5043969;28;20029;-67
2024/04/02 06:50:21;;;;;;;4.90;2.60;;;10.80;99.90;;;;;;5043711;28;20075;-67
2024/04/02 06:52:46;;;;;;;8.65;3.30;;;10.70;99.90;;;;;;5035748;28;20040;-67
2024/04/02 06:55:12;;;;;;;8.50;3.40;;;10.70;99.90;;;;;;5037777;28;20025;-67
2024/04/02 06:57:37;;;;;;;7.95;3.28;;;10.80;99.90;;;;;;5043944;28;20053;-67
2024/04/02 07:00:06;;;;;;;6.60;3.47;;;10.90;99.90;;;;;;5044389;28;20041;-67
2024/04/02 07:02:32;;;;;;;8.02;4.10;;;10.90;99.90;;;;;;5037958;28;20949;-67
2024/04/02 07:04:58;;;;;;;6.13;3.60;;;10.90;99.90;;;;;;5043830;28;20091;-67
2024/04/02 07:07:24;;;;;;;9.18;3.95;;;11.10;99.90;;;;;;5041365;28;20036;-67
2024/04/02 07:09:50;;;;;;;5.32;3.88;;;11.00;99.90;;;;;;5036512;28;20030;-66
2024/04/02 07:12:15;;;;;;;4.78;4.18;;;11.00;99.90;;;;;;5039221;28;20033;-67
2024/04/02 07:14:41;;;;;;;6.50;4.40;;;11.10;99.90;;;;;;5043310;28;20071;-67
2024/04/02 07:17:06;;;;;;;6.88;4.40;;;11.10;99.90;;;;;;5044116;28;20044;-67
2024/04/02 07:19:32;;;;;;;10.25;4.40;;;11.10;99.90;;;;;;5036845;28;20594;-67
2024/04/02 07:21:58;;;;;;;7.10;4.90;;;11.10;99.90;;;;;;5037550;28;20033;-66
2024/04/02 07:24:23;;;;;;;10.82;4.68;;;11.10;99.90;;;;;;5043940;28;20044;-66
2024/04/02 07:26:49;;;;;;;8.30;4.63;;;11.10;99.90;;;;;;5035690;28;20052;-67
2024/04/02 07:29:14;;;;;;;9.15;4.40;;;11.20;99.90;;;;;;5036520;28;20086;-67
2024/04/02 07:31:40;;;;;;;7.88;5.13;;;11.20;99.90;;;;;;5038599;28;20109;-67
2024/04/02 07:34:06;;;;;;;8.27;4.45;;;11.20;99.90;;;;;;5042612;28;20025;-67
2024/04/02 07:36:31;;;;;;;7.22;4.28;;;11.20;99.90;;;;;;5032484;28;20069;-67
2024/04/02 07:38:57;;;;;;;9.48;4.22;;;11.20;99.90;;;;;;5041090;28;20128;-67
2024/04/02 07:41:22;;;;;;;10.73;5.05;;;11.30;99.90;;;;;;5037232;28;20612;-67
2024/04/02 07:43:48;;;;;;;7.60;4.57;;;11.40;99.90;;;;;;5042915;28;20112;-66
2024/04/02 07:46:16;;;;;;;6.47;4.47;;;11.30;99.90;;;;;;5037231;28;20044;-67
2024/04/02 07:48:42;;;;;;;8.98;4.75;;;11.40;99.90;;;;;;5043840;28;20659;-67
2024/04/02 07:51:09;;;;;;;9.95;4.40;;;11.40;99.90;;;;;;5038242;28;20048;-66
2024/04/02 07:53:34;;;;;;;10.65;4.57;;;11.50;99.90;;;;;;5036126;28;20162;-67
2024/04/02 07:56:00;;;;;;;7.32;4.15;;;11.50;99.90;;;;;;5042572;28;20072;-66
2024/04/02 07:58:25;;;;;;;10.13;3.75;;;11.50;99.90;;;;;;5038637;28;20024;-66
2024/04/02 08:00:51;;;;;;;5.25;3.85;;;11.60;99.90;;;;;;5040149;28;20269;-67
2024/04/02 08:03:17;;;;;;;4.70;4.03;;;11.70;99.90;;;;;;5041167;28;20108;-67
2024/04/02 08:05:42;;;;;;;9.23;4.05;;;11.70;99.90;;;;;;5038905;28;20033;-67
2024/04/02 08:08:08;;;;;;;6.93;3.85;;;11.80;99.90;;;;;;5041353;28;20063;-66
2024/04/02 08:10:33;;;;;;;7.03;4.20;;;11.90;99.90;;;;;;5040909;28;20034;-67
2024/04/02 08:12:59;;;;;;;9.98;4.88;;;11.90;99.90;;;;;;5039864;28;20055;-67
2024/04/02 08:15:24;;;;;;;5.82;4.20;;;11.90;99.90;;;;;;5037349;28;20029;-66
2024/04/02 08:17:50;;;;;;;6.85;4.00;;;11.80;99.90;;;;;;5039881;28;20059;-67
2024/04/02 08:20:16;;;;;;;9.02;4.40;;;11.80;99.90;;;;;;5037365;28;20072;-68
2024/04/02 08:22:42;;;;;;;6.18;4.68;;;11.90;99.90;;;;;;5041691;28;20057;-67
2024/04/02 08:25:07;;;;;;;9.32;5.00;;;11.90;99.90;;;;;;5038003;28;20380;-67
2024/04/02 08:27:39;;;;;;;10.93;4.60;;;12.00;99.90;;;;;;5041433;28;20103;-67
2024/04/02 08:30:05;;;;;;;5.93;4.40;;;12.00;99.90;;;;;;5041840;28;20029;-67
2024/04/02 08:32:31;;;;;;;10.05;5.20;;;12.10;99.90;;;;;;5039689;28;20529;-67
2024/04/02 08:34:57;;;;;;;7.78;4.63;;;12.10;99.90;;;;;;5044472;28;20025;-67
2024/04/02 08:37:22;;;;;;;8.25;4.53;;;12.20;99.90;;;;;;5044221;28;20651;-67
2024/04/02 08:39:48;;;;;;;17.48;4.70;;;12.20;99.90;;;;;;5041482;28;20041;-67
2024/04/02 08:42:14;;;;;;;6.22;4.60;;;12.10;99.90;;;;;;5041900;28;20094;-67
2024/04/02 08:44:41;;;;;;;6.15;4.82;;;12.10;99.90;;;;;;5039400;28;20087;-66
2024/04/02 08:47:08;;;;;;;7.32;4.50;;;12.10;99.90;;;;;;5035398;28;20040;-67
2024/04/02 08:49:34;;;;;;;5.10;4.10;;;12.20;99.90;;;;;;5040084;28;20025;-67
2024/04/02 08:52:00;;;;;;;6.18;4.13;;;12.20;99.90;;;;;;5036488;28;20056;-67
2024/04/02 08:54:27;;;;;;;6.40;4.35;;;12.20;99.90;;;;;;5039626;28;20049;-67
2024/04/02 08:56:54;;;;;;;10.15;4.55;;;12.20;99.90;;;;;;5036457;28;20538;-67
2024/04/02 08:59:21;;;;;;;9.40;4.13;;;12.10;99.90;;;;;;5039811;28;20045;-67
2024/04/02 09:01:47;;;;;;;6.10;4.43;;;12.10;99.90;;;;;;5040576;28;20032;-66
2024/04/02 09:04:13;;;;;;;6.97;4.07;;;12.10;99.90;;;;;;5034618;28;20532;-67
2024/04/02 09:06:39;;;;;;;4.68;3.90;;;12.20;99.90;;;;;;5041089;28;20045;-67
2024/04/02 09:09:07;;;;;;;6.70;4.18;;;12.20;99.90;;;;;;5067331;28;20029;-67
2024/04/02 09:11:34;;;;;;;5.97;4.78;;;12.20;99.90;;;;;;5038462;28;20053;-68
2024/04/02 09:14:02;;;;;;;5.10;3.97;;;12.30;99.90;;;;;;5040987;28;20037;-68
2024/04/02 09:16:32;;;;;;;7.18;4.40;;;12.40;99.90;;;;;;5036683;28;20764;-68
2024/04/02 09:19:00;;;;;;;6.53;4.50;;;12.50;99.90;;;;;;5043825;28;20024;-68
2024/04/02 09:21:27;;;;;;;6.28;4.38;;;12.50;99.90;;;;;;5040631;28;20122;-67
2024/04/02 09:23:53;;;;;;;6.28;4.10;;;12.50;99.90;;;;;;5040199;28;20462;-67
2024/04/02 09:26:22;;;;;;;9.85;4.18;;;12.60;99.90;;;;;;5039867;28;20036;-68
2024/04/02 09:28:49;;;;;;;5.10;3.75;;;12.70;99.90;;;;;;5036507;28;20029;-68
2024/04/02 09:31:14;;;;;;;9.70;3.95;;;12.80;99.90;;;;;;5038214;28;20112;-68
2024/04/02 09:33:41;;;;;;;6.13;3.45;;;12.80;99.90;;;;;;5041458;28;20124;-68
2024/04/02 09:36:13;;;;;;;5.43;4.07;;;12.90;99.90;;;;;;5038712;28;20045;-68
2024/04/02 09:38:40;;;;;;;8.23;3.47;;;12.90;99.90;;;;;;5041415;28;20549;-67
2024/04/02 09:41:07;;;;;;;7.95;3.30;;;13.00;99.90;;;;;;5042245;28;20045;-68
2024/04/02 09:43:33;;;;;;;6.72;3.20;;;12.80;99.90;;;;;;5043481;28;20098;-68
2024/04/02 09:46:01;;;;;;;5.78;3.05;;;12.80;99.90;;;;;;5038702;28;20088;-68
2024/04/02 09:48:39;;;;;;;4.82;3.28;;;12.80;99.90;;;;;;5038427;28;20044;-68
2024/04/02 09:51:06;;;;;;;8.32;3.28;;;12.80;99.90;;;;;;5041149;28;20052;-68
2024/04/02 09:53:33;;;;;;;5.10;3.17;;;12.80;99.90;;;;;;5036825;28;20099;-68
2024/04/02 09:56:01;;;;;;;7.60;3.28;;;12.80;99.90;;;;;;5040952;28;20098;-67
2024/04/02 09:58:27;;;;;;;6.80;3.10;;;12.80;99.90;;;;;;5041589;28;20096;-68
2024/04/02 10:00:57;;;;;;;5.88;3.55;;;12.80;99.90;;;;;;5037918;28;20124;-68
2024/04/02 10:03:28;;;;;;;8.45;3.45;;;12.80;99.90;;;;;;5037005;28;20164;-68
2024/04/02 10:06:02;;;;;;;9.38;3.33;;;12.80;99.90;;;;;;5040255;28;20610;-68
2024/04/02 10:08:27;;;;;;;6.15;3.45;;;12.80;99.90;;;;;;5035820;28;20734;-68
2024/04/02 10:10:55;;;;;;;7.93;3.97;;;12.80;99.90;;;;;;5036547;28;20112;-68
2024/04/02 10:13:21;;;;;;;6.97;4.00;;;12.90;99.90;;;;;;5034471;28;21771;-69
2024/04/02 10:15:53;;;;;;;6.75;3.78;;;12.90;99.90;;;;;;5036008;28;20038;-68
2024/04/02 10:18:23;;;;;;;8.80;3.92;;;12.80;99.90;;;;;;5038885;28;20040;-68
2024/04/02 10:20:56;;;;;;;8.23;4.40;;;12.90;99.90;;;;;;5037463;28;20442;-67
2024/04/02 10:23:22;;;;;;;6.25;4.10;;;12.90;99.90;;;;;;5042797;28;20136;-68
2024/04/02 10:25:48;;;;;;;7.40;4.10;;;12.90;99.90;;;;;;5044227;28;20025;-67
2024/04/02 10:28:14;;;;;;;6.68;4.07;;;12.90;99.90;;;;;;5039598;28;20040;-68
2024/04/02 10:30:46;;;;;;;8.68;4.22;;;13.00;99.90;;;;;;5041267;28;20091;-68
2024/04/02 10:33:21;;;;;;;8.13;4.38;;;12.90;99.90;;;;;;5038667;28;20152;-68
2024/04/02 10:35:47;;;;;;;8.38;4.18;;;13.00;99.90;;;;;;5039109;28;20061;-68
2024/04/02 10:38:14;;;;;;;8.35;3.75;;;13.00;99.90;;;;;;5044622;28;20140;-68
2024/04/02 10:40:40;;;;;;;6.55;4.20;;;13.00;99.90;;;;;;5042285;28;20029;-68
2024/04/02 10:43:05;;;;;;;7.30;4.22;;;12.90;99.90;;;;;;5044646;28;20390;-68
2024/04/02 10:45:31;;;;;;;12.43;3.40;;;12.90;99.90;;;;;;5046242;28;20033;-68
2024/04/02 10:47:57;;;;;;;14.32;3.15;;;13.30;99.90;;;;;;5046760;28;20498;-68
2024/04/02 10:50:24;;;;;;;10.75;2.63;;;13.50;99.90;;;;;;5045695;28;20037;-68
2024/04/02 10:52:50;;;;;;;5.65;2.58;;;13.50;99.90;;;;;;5038206;28;20030;-68
2024/04/02 10:55:16;;;;;;;4.97;2.72;;;13.60;99.80;;;;;;5044096;28;20036;-68
2024/04/02 10:57:42;;;;;;;8.10;3.10;;;13.60;99.80;;;;;;5045967;28;20418;-68
2024/04/02 11:00:11;;;;;;;10.15;2.70;;;13.60;99.80;;;;;;5046520;28;20029;-67
2024/04/02 11:02:38;;;;;;;5.32;3.13;;;13.50;99.90;;;;;;5040608;28;20033;-68
2024/04/02 11:05:06;;;;;;;7.25;2.85;;;13.50;99.90;;;;;;5042255;28;20192;-68
2024/04/02 11:07:33;;;;;;;6.10;2.70;;;13.60;99.90;;;;;;5046614;28;20048;-68
2024/04/02 11:09:59;;;;;;;4.70;2.22;;;13.90;99.90;;;;;;5044427;28;20033;-68
2024/04/02 11:12:26;;;;;;;5.45;2.30;;;14.00;99.80;;;;;;5044856;28;20136;-67
2024/04/02 11:14:55;;;;;;;8.90;2.80;;;13.90;99.30;;;;;;5034597;28;20041;-68
2024/04/02 11:17:22;;;;;;;4.97;2.65;;;13.70;99.40;;;;;;5062003;28;20037;-67
2024/04/02 11:19:49;;;;;;;13.20;3.90;;;13.60;99.60;;;;;;5041476;28;20041;-67
2024/04/02 11:25:14;;;;;;;6.93;3.80;;;13.30;99.90;;;;;;5043637;28;20040;-68
2024/04/02 11:27:41;;;;;;;9.45;4.35;;;13.30;99.90;;;;;;5035465;28;20037;-67
2024/04/02 11:30:08;;;;;;;6.53;3.50;;;13.20;99.90;;;;;;5039383;28;20025;-67
2024/04/02 11:32:34;;;;;;;14.23;4.60;;;13.20;99.90;;;;;;5039688;28;20510;-68
2024/04/02 11:35:02;;;;;;;9.30;3.90;;;13.20;99.90;;;;;;5041329;28;20033;-67
2024/04/02 11:37:29;;;;;;;11.27;3.97;;;13.20;99.90;;;;;;5038986;28;20057;-68
2024/04/02 11:39:55;;;;;;;8.45;3.78;;;13.20;99.90;;;;;;5036932;28;20298;-68
2024/04/02 11:42:21;;;;;;;12.05;3.80;;;13.20;99.90;;;;;;5039089;28;20556;-68
2024/04/02 11:44:47;;;;;;;7.43;3.70;;;13.20;99.80;;;;;;5038628;28;20037;-67
2024/04/02 11:47:13;;;;;;;9.38;3.60;;;13.30;99.90;;;;;;5038274;28;20517;-67
2024/04/02 11:49:41;;;;;;;7.30;3.70;;;13.30;99.90;;;;;;5040016;28;20040;-68
2024/04/02 11:52:07;;;;;;;5.50;3.73;;;13.40;99.90;;;;;;5036373;28;20574;-67
2024/04/02 11:54:32;;;;;;;11.32;3.40;;;13.50;99.90;;;;;;5044847;28;20033;-68
2024/04/02 12:02:27;;;;;;;7.93;3.30;;;13.50;99.90;;;;;;5037896;28;20117;-67
2024/04/02 12:04:52;;;;;;;9.20;3.47;;;13.50;99.90;;;;;;5038518;28;20112;-67
2024/04/02 12:07:18;;;;;;;8.60;3.28;;;13.40;99.70;;;;;;5044904;28;20032;-67
2024/04/02 12:09:46;;;;;;;10.68;3.25;;;13.30;99.90;;;;;;5043002;28;20530;-68
2024/04/02 12:12:11;;;;;;;;;;;13.20;99.90;;;;;;5040188;28;20073;-67
2024/04/02 12:14:37;;;;;;;8.80;3.22;;;13.20;99.90;;;;;;5043609;28;19944;-67
2024/04/02 12:17:03;;;;;;;7.65;2.85;;;13.10;99.90;;;;;;5044316;28;20123;-67
2024/04/02 12:19:28;;;;;;;9.20;3.25;;;13.10;99.90;;;;;;5042975;28;20037;-67
2024/04/02 12:21:54;;;;;;;9.68;3.05;;;13.00;99.90;;;;;;5039744;28;20210;-67
2024/04/02 12:24:19;;;;;;;10.02;2.65;;;13.00;99.90;;;;;;5042547;28;20098;-68
2024/04/02 12:26:45;;;;;;;11.10;2.85;;;13.00;99.90;;;;;;5041709;28;20025;-68
2024/04/02 12:29:10;;;;;;;6.93;2.80;;;13.00;99.90;;;;;;5042009;28;20021;-67
2024/04/02 12:31:36;;;;;;;11.05;4.75;;;13.10;99.90;;;;;;5044915;28;20032;-67
2024/04/02 12:34:02;;;;;;;8.93;3.03;;;13.10;99.90;;;;;;5043813;28;20029;-68
2024/04/02 12:36:27;;;;;;;11.63;2.92;;;13.10;99.90;;;;;;5036828;28;20219;-67
2024/04/02 12:38:53;;;;;;;9.65;2.65;;;13.20;99.90;;;;;;5042265;28;20099;-68
2024/04/02 12:41:18;;;;;;;7.75;2.67;;;13.20;99.90;;;;;;5033593;28;20038;-67
2024/04/02 12:43:44;;;;;;;5.93;2.40;;;13.20;99.90;;;;;;5043098;28;20074;-68
2024/04/02 12:46:09;;;;;;;4.15;1.80;;;13.30;99.90;;;;;;5044022;28;20086;-68
2024/04/02 12:48:38;;;;;;;9.70;1.63;;;13.40;99.00;;;;;;5038854;28;20032;-67
2024/04/02 12:51:04;;;;;;;7.78;1.52;;;13.50;98.80;;;;;;5041232;28;20506;-67